sensor_id;sensor_type;location;lat;lon;timestamp;P1;durP1;ratioP1;P2;durP2;ratioP2
31764;SDS011;18338;53.240;8.798;2022-12-18T00:02:13;64.53;;;31.10;;
31764;SDS011;18338;53.240;8.798;2022-12-18T00:04:40;55.73;;;31.00;;
31764;SDS011;18338;53.240;8.798;2022-12-18T00:07:07;56.10;;;30.73;;
31764;SDS011;18338;53.240;8.798;2022-12-18T00:09:33;58.60;;;30.27;;
31764;SDS011;18338;53.240;8.798;2022-12-18T00:12:05;59.80;;;31.10;;
31764;SDS011;18338;53.240;8.798;2022-12-18T00:14:40;59.23;;;30.10;;
31764;SDS011;18338;53.240;8.798;2022-12-18T00:17:08;59.27;;;31.73;;
31764;SDS011;18338;53.240;8.798;2022-12-18T00:19:35;57.37;;;30.43;;
31764;SDS011;18338;53.240;8.798;2022-12-18T00:22:01;58.97;;;30.23;;
31764;SDS011;18338;53.240;8.798;2022-12-18T00:24:28;59.97;;;29.60;;
31764;SDS011;18338;53.240;8.798;2022-12-18T00:26:55;53.73;;;29.53;;
31764;SDS011;18338;53.240;8.798;2022-12-18T00:29:21;59.60;;;28.83;;
31764;SDS011;18338;53.240;8.798;2022-12-18T00:31:48;56.57;;;29.23;;
31764;SDS011;18338;53.240;8.798;2022-12-18T00:34:15;56.10;;;28.63;;
31764;SDS011;18338;53.240;8.798;2022-12-18T00:36:42;55.37;;;28.90;;
31764;SDS011;18338;53.240;8.798;2022-12-18T00:39:09;60.50;;;29.77;;
31764;SDS011;18338;53.240;8.798;2022-12-18T00:41:36;58.93;;;30.00;;
31764;SDS011;18338;53.240;8.798;2022-12-18T00:44:22;58.90;;;30.50;;
31764;SDS011;18338;53.240;8.798;2022-12-18T00:46:49;57.80;;;29.30;;
31764;SDS011;18338;53.240;8.798;2022-12-18T00:49:16;56.77;;;30.73;;
31764;SDS011;18338;53.240;8.798;2022-12-18T00:51:45;58.50;;;31.03;;
31764;SDS011;18338;53.240;8.798;2022-12-18T00:54:12;55.07;;;29.27;;
31764;SDS011;18338;53.240;8.798;2022-12-18T00:56:39;55.17;;;28.70;;
31764;SDS011;18338;53.240;8.798;2022-12-18T00:59:14;60.77;;;32.67;;
31764;SDS011;18338;53.240;8.798;2022-12-18T01:01:40;61.57;;;33.13;;
31764;SDS011;18338;53.240;8.798;2022-12-18T01:04:07;62.00;;;32.73;;
31764;SDS011;18338;53.240;8.798;2022-12-18T01:06:48;61.33;;;32.17;;
31764;SDS011;18338;53.240;8.798;2022-12-18T01:09:15;56.73;;;29.67;;
31764;SDS011;18338;53.240;8.798;2022-12-18T01:11:41;53.73;;;30.20;;
31764;SDS011;18338;53.240;8.798;2022-12-18T01:14:08;51.53;;;30.43;;
31764;SDS011;18338;53.240;8.798;2022-12-18T01:16:35;58.93;;;30.57;;
31764;SDS011;18338;53.240;8.798;2022-12-18T01:19:01;52.87;;;29.47;;
31764;SDS011;18338;53.240;8.798;2022-12-18T01:21:28;59.93;;;30.87;;
31764;SDS011;18338;53.240;8.798;2022-12-18T01:23:55;56.47;;;29.60;;
31764;SDS011;18338;53.240;8.798;2022-12-18T01:26:23;53.50;;;28.80;;
31764;SDS011;18338;53.240;8.798;2022-12-18T01:28:50;55.13;;;29.90;;
31764;SDS011;18338;53.240;8.798;2022-12-18T01:31:19;51.80;;;29.37;;
31764;SDS011;18338;53.240;8.798;2022-12-18T01:33:48;57.93;;;28.23;;
31764;SDS011;18338;53.240;8.798;2022-12-18T01:36:19;53.23;;;30.23;;
31764;SDS011;18338;53.240;8.798;2022-12-18T01:38:51;53.57;;;29.80;;
31764;SDS011;18338;53.240;8.798;2022-12-18T01:41:21;49.43;;;28.33;;
31764;SDS011;18338;53.240;8.798;2022-12-18T01:43:58;55.80;;;29.03;;
31764;SDS011;18338;53.240;8.798;2022-12-18T01:46:25;50.70;;;28.03;;
31764;SDS011;18338;53.240;8.798;2022-12-18T01:48:54;56.80;;;28.97;;
31764;SDS011;18338;53.240;8.798;2022-12-18T01:51:25;49.17;;;28.13;;
31764;SDS011;18338;53.240;8.798;2022-12-18T01:53:53;52.73;;;28.17;;
31764;SDS011;18338;53.240;8.798;2022-12-18T01:56:20;55.53;;;29.63;;
31764;SDS011;18338;53.240;8.798;2022-12-18T01:59:21;48.63;;;27.77;;
31764;SDS011;18338;53.240;8.798;2022-12-18T02:01:40;49.07;;;26.80;;
31764;SDS011;18338;53.240;8.798;2022-12-18T02:07:00;48.77;;;28.17;;
31764;SDS011;18338;53.240;8.798;2022-12-18T02:09:31;53.33;;;29.10;;
31764;SDS011;18338;53.240;8.798;2022-12-18T02:17:23;52.97;;;27.87;;
31764;SDS011;18338;53.240;8.798;2022-12-18T02:25:38;51.50;;;28.70;;
31764;SDS011;18338;53.240;8.798;2022-12-18T02:28:19;51.20;;;27.20;;
31764;SDS011;18338;53.240;8.798;2022-12-18T02:30:48;47.10;;;26.90;;
31764;SDS011;18338;53.240;8.798;2022-12-18T02:33:18;50.40;;;27.57;;
31764;SDS011;18338;53.240;8.798;2022-12-18T02:35:47;48.13;;;26.37;;
31764;SDS011;18338;53.240;8.798;2022-12-18T02:38:16;49.93;;;27.13;;
31764;SDS011;18338;53.240;8.798;2022-12-18T02:40:43;47.60;;;27.43;;
31764;SDS011;18338;53.240;8.798;2022-12-18T02:43:13;48.13;;;26.07;;
31764;SDS011;18338;53.240;8.798;2022-12-18T02:48:53;47.50;;;26.37;;
31764;SDS011;18338;53.240;8.798;2022-12-18T02:51:29;45.70;;;25.03;;
31764;SDS011;18338;53.240;8.798;2022-12-18T02:54:09;48.13;;;25.67;;
31764;SDS011;18338;53.240;8.798;2022-12-18T02:56:45;45.93;;;26.77;;
31764;SDS011;18338;53.240;8.798;2022-12-18T02:59:21;47.53;;;25.77;;
31764;SDS011;18338;53.240;8.798;2022-12-18T03:04:58;45.43;;;24.97;;
31764;SDS011;18338;53.240;8.798;2022-12-18T03:07:34;44.20;;;25.33;;
31764;SDS011;18338;53.240;8.798;2022-12-18T03:10:05;46.27;;;24.97;;
31764;SDS011;18338;53.240;8.798;2022-12-18T03:12:35;47.10;;;24.80;;
31764;SDS011;18338;53.240;8.798;2022-12-18T03:15:12;45.67;;;26.33;;
31764;SDS011;18338;53.240;8.798;2022-12-18T03:18:01;44.60;;;24.87;;
31764;SDS011;18338;53.240;8.798;2022-12-18T03:20:31;49.33;;;25.23;;
31764;SDS011;18338;53.240;8.798;2022-12-18T03:23:10;42.07;;;25.13;;
31764;SDS011;18338;53.240;8.798;2022-12-18T03:25:41;41.30;;;23.90;;
31764;SDS011;18338;53.240;8.798;2022-12-18T03:28:12;46.23;;;25.63;;
31764;SDS011;18338;53.240;8.798;2022-12-18T03:30:42;43.67;;;24.37;;
31764;SDS011;18338;53.240;8.798;2022-12-18T03:33:16;42.60;;;24.10;;
31764;SDS011;18338;53.240;8.798;2022-12-18T03:36:04;44.40;;;24.73;;
31764;SDS011;18338;53.240;8.798;2022-12-18T03:38:31;43.87;;;24.63;;
31764;SDS011;18338;53.240;8.798;2022-12-18T03:41:11;40.27;;;24.07;;
31764;SDS011;18338;53.240;8.798;2022-12-18T03:44:00;40.60;;;23.17;;
31764;SDS011;18338;53.240;8.798;2022-12-18T03:49:30;43.30;;;21.83;;
31764;SDS011;18338;53.240;8.798;2022-12-18T03:52:10;41.97;;;23.23;;
31764;SDS011;18338;53.240;8.798;2022-12-18T03:54:45;38.70;;;22.07;;
31764;SDS011;18338;53.240;8.798;2022-12-18T03:57:17;45.27;;;23.80;;
31764;SDS011;18338;53.240;8.798;2022-12-18T03:59:47;43.37;;;23.17;;
31764;SDS011;18338;53.240;8.798;2022-12-18T04:02:18;38.40;;;22.73;;
31764;SDS011;18338;53.240;8.798;2022-12-18T04:04:46;39.30;;;21.97;;
31764;SDS011;18338;53.240;8.798;2022-12-18T04:07:14;47.50;;;23.80;;
31764;SDS011;18338;53.240;8.798;2022-12-18T04:09:42;40.93;;;22.23;;
31764;SDS011;18338;53.240;8.798;2022-12-18T04:12:11;40.93;;;22.33;;
31764;SDS011;18338;53.240;8.798;2022-12-18T04:14:38;42.43;;;22.13;;
31764;SDS011;18338;53.240;8.798;2022-12-18T04:17:05;41.87;;;23.67;;
31764;SDS011;18338;53.240;8.798;2022-12-18T04:19:32;37.40;;;22.73;;
31764;SDS011;18338;53.240;8.798;2022-12-18T04:21:58;40.70;;;23.33;;
31764;SDS011;18338;53.240;8.798;2022-12-18T04:24:25;39.20;;;21.60;;
31764;SDS011;18338;53.240;8.798;2022-12-18T04:26:52;38.00;;;21.50;;
31764;SDS011;18338;53.240;8.798;2022-12-18T04:29:19;39.23;;;21.50;;
31764;SDS011;18338;53.240;8.798;2022-12-18T04:31:45;36.80;;;21.83;;
31764;SDS011;18338;53.240;8.798;2022-12-18T04:34:12;35.90;;;21.90;;
31764;SDS011;18338;53.240;8.798;2022-12-18T04:36:39;33.33;;;21.27;;
31764;SDS011;18338;53.240;8.798;2022-12-18T04:39:07;36.23;;;20.50;;
31764;SDS011;18338;53.240;8.798;2022-12-18T04:41:34;34.00;;;20.73;;
31764;SDS011;18338;53.240;8.798;2022-12-18T04:44:00;39.30;;;21.20;;
31764;SDS011;18338;53.240;8.798;2022-12-18T04:46:27;36.17;;;21.70;;
31764;SDS011;18338;53.240;8.798;2022-12-18T04:48:54;36.20;;;19.80;;
31764;SDS011;18338;53.240;8.798;2022-12-18T04:51:21;34.27;;;19.70;;
31764;SDS011;18338;53.240;8.798;2022-12-18T04:53:51;31.27;;;19.17;;
31764;SDS011;18338;53.240;8.798;2022-12-18T04:56:18;34.20;;;19.00;;
31764;SDS011;18338;53.240;8.798;2022-12-18T04:58:45;32.67;;;18.43;;
31764;SDS011;18338;53.240;8.798;2022-12-18T05:01:13;30.83;;;17.73;;
31764;SDS011;18338;53.240;8.798;2022-12-18T05:03:41;29.93;;;17.60;;
31764;SDS011;18338;53.240;8.798;2022-12-18T05:06:09;30.60;;;18.47;;
31764;SDS011;18338;53.240;8.798;2022-12-18T05:08:36;30.90;;;18.40;;
31764;SDS011;18338;53.240;8.798;2022-12-18T05:13:37;28.50;;;16.77;;
31764;SDS011;18338;53.240;8.798;2022-12-18T05:16:05;32.00;;;17.90;;
31764;SDS011;18338;53.240;8.798;2022-12-18T05:18:32;26.57;;;16.37;;
31764;SDS011;18338;53.240;8.798;2022-12-18T05:20:59;27.03;;;16.23;;
31764;SDS011;18338;53.240;8.798;2022-12-18T05:23:26;25.53;;;15.87;;
31764;SDS011;18338;53.240;8.798;2022-12-18T05:28:22;27.50;;;14.53;;
31764;SDS011;18338;53.240;8.798;2022-12-18T05:30:51;24.60;;;14.37;;
31764;SDS011;18338;53.240;8.798;2022-12-18T05:33:19;26.40;;;15.20;;
31764;SDS011;18338;53.240;8.798;2022-12-18T05:36:06;23.93;;;14.20;;
31764;SDS011;18338;53.240;8.798;2022-12-18T05:38:35;25.20;;;14.40;;
31764;SDS011;18338;53.240;8.798;2022-12-18T05:41:03;20.03;;;13.20;;
31764;SDS011;18338;53.240;8.798;2022-12-18T05:43:30;25.70;;;14.00;;
31764;SDS011;18338;53.240;8.798;2022-12-18T05:45:57;22.93;;;14.20;;
31764;SDS011;18338;53.240;8.798;2022-12-18T05:48:23;20.27;;;12.73;;
31764;SDS011;18338;53.240;8.798;2022-12-18T05:50:50;22.87;;;13.10;;
31764;SDS011;18338;53.240;8.798;2022-12-18T05:53:18;22.80;;;13.60;;
31764;SDS011;18338;53.240;8.798;2022-12-18T05:55:46;27.80;;;14.97;;
31764;SDS011;18338;53.240;8.798;2022-12-18T05:58:13;25.57;;;14.30;;
31764;SDS011;18338;53.240;8.798;2022-12-18T06:00:42;22.13;;;13.33;;
31764;SDS011;18338;53.240;8.798;2022-12-18T06:03:10;26.60;;;13.33;;
31764;SDS011;18338;53.240;8.798;2022-12-18T06:05:42;23.63;;;12.97;;
31764;SDS011;18338;53.240;8.798;2022-12-18T06:08:11;20.87;;;12.97;;
31764;SDS011;18338;53.240;8.798;2022-12-18T06:10:38;20.67;;;13.67;;
31764;SDS011;18338;53.240;8.798;2022-12-18T06:13:06;23.57;;;13.97;;
31764;SDS011;18338;53.240;8.798;2022-12-18T06:15:35;20.63;;;13.57;;
31764;SDS011;18338;53.240;8.798;2022-12-18T06:18:03;21.10;;;12.70;;
31764;SDS011;18338;53.240;8.798;2022-12-18T06:20:30;20.40;;;12.53;;
31764;SDS011;18338;53.240;8.798;2022-12-18T06:22:59;23.73;;;13.30;;
31764;SDS011;18338;53.240;8.798;2022-12-18T06:25:25;24.00;;;12.87;;
31764;SDS011;18338;53.240;8.798;2022-12-18T06:27:52;22.10;;;12.27;;
31764;SDS011;18338;53.240;8.798;2022-12-18T06:30:19;21.87;;;12.87;;
31764;SDS011;18338;53.240;8.798;2022-12-18T06:32:47;21.37;;;13.27;;
31764;SDS011;18338;53.240;8.798;2022-12-18T06:35:21;21.57;;;12.83;;
31764;SDS011;18338;53.240;8.798;2022-12-18T06:37:48;22.60;;;12.73;;
31764;SDS011;18338;53.240;8.798;2022-12-18T06:40:15;21.70;;;13.43;;
31764;SDS011;18338;53.240;8.798;2022-12-18T06:42:42;23.57;;;13.17;;
31764;SDS011;18338;53.240;8.798;2022-12-18T06:45:09;20.17;;;12.53;;
31764;SDS011;18338;53.240;8.798;2022-12-18T06:47:36;21.97;;;13.23;;
31764;SDS011;18338;53.240;8.798;2022-12-18T06:50:02;21.97;;;11.93;;
31764;SDS011;18338;53.240;8.798;2022-12-18T06:52:31;21.77;;;12.60;;
31764;SDS011;18338;53.240;8.798;2022-12-18T06:54:58;20.63;;;12.40;;
31764;SDS011;18338;53.240;8.798;2022-12-18T06:57:25;20.97;;;12.63;;
31764;SDS011;18338;53.240;8.798;2022-12-18T06:59:51;19.87;;;11.97;;
31764;SDS011;18338;53.240;8.798;2022-12-18T07:02:18;22.33;;;12.47;;
31764;SDS011;18338;53.240;8.798;2022-12-18T07:04:45;19.47;;;12.27;;
31764;SDS011;18338;53.240;8.798;2022-12-18T07:07:11;23.67;;;12.67;;
31764;SDS011;18338;53.240;8.798;2022-12-18T07:09:38;23.13;;;13.47;;
31764;SDS011;18338;53.240;8.798;2022-12-18T07:12:05;20.13;;;11.90;;
31764;SDS011;18338;53.240;8.798;2022-12-18T07:14:32;22.90;;;13.47;;
31764;SDS011;18338;53.240;8.798;2022-12-18T07:16:59;20.37;;;13.40;;
31764;SDS011;18338;53.240;8.798;2022-12-18T07:19:26;20.60;;;12.87;;
31764;SDS011;18338;53.240;8.798;2022-12-18T07:21:54;21.00;;;12.83;;
31764;SDS011;18338;53.240;8.798;2022-12-18T07:24:20;22.03;;;12.53;;
31764;SDS011;18338;53.240;8.798;2022-12-18T07:26:47;21.97;;;12.97;;
31764;SDS011;18338;53.240;8.798;2022-12-18T07:29:14;24.10;;;13.30;;
31764;SDS011;18338;53.240;8.798;2022-12-18T07:31:41;21.83;;;13.30;;
31764;SDS011;18338;53.240;8.798;2022-12-18T07:34:12;23.43;;;13.20;;
31764;SDS011;18338;53.240;8.798;2022-12-18T07:36:39;25.80;;;14.13;;
31764;SDS011;18338;53.240;8.798;2022-12-18T07:39:06;18.30;;;12.47;;
31764;SDS011;18338;53.240;8.798;2022-12-18T07:41:33;20.33;;;13.00;;
31764;SDS011;18338;53.240;8.798;2022-12-18T07:44:00;24.50;;;12.73;;
31764;SDS011;18338;53.240;8.798;2022-12-18T07:46:26;19.80;;;12.47;;
31764;SDS011;18338;53.240;8.798;2022-12-18T07:48:53;24.40;;;12.73;;
31764;SDS011;18338;53.240;8.798;2022-12-18T07:51:20;21.33;;;13.20;;
31764;SDS011;18338;53.240;8.798;2022-12-18T07:53:46;20.00;;;12.67;;
31764;SDS011;18338;53.240;8.798;2022-12-18T07:56:17;21.50;;;13.07;;
31764;SDS011;18338;53.240;8.798;2022-12-18T07:58:54;21.00;;;12.70;;
31764;SDS011;18338;53.240;8.798;2022-12-18T08:01:21;22.07;;;12.77;;
31764;SDS011;18338;53.240;8.798;2022-12-18T08:03:48;21.80;;;13.17;;
31764;SDS011;18338;53.240;8.798;2022-12-18T08:06:17;19.97;;;13.03;;
31764;SDS011;18338;53.240;8.798;2022-12-18T08:08:50;20.10;;;12.90;;
31764;SDS011;18338;53.240;8.798;2022-12-18T08:11:20;21.60;;;13.10;;
31764;SDS011;18338;53.240;8.798;2022-12-18T08:13:48;19.57;;;12.27;;
31764;SDS011;18338;53.240;8.798;2022-12-18T08:16:15;22.40;;;12.87;;
31764;SDS011;18338;53.240;8.798;2022-12-18T08:18:43;24.40;;;12.90;;
31764;SDS011;18338;53.240;8.798;2022-12-18T08:21:10;20.50;;;13.50;;
31764;SDS011;18338;53.240;8.798;2022-12-18T08:23:41;22.53;;;13.93;;
31764;SDS011;18338;53.240;8.798;2022-12-18T08:26:09;28.37;;;17.00;;
31764;SDS011;18338;53.240;8.798;2022-12-18T08:28:37;26.20;;;15.33;;
31764;SDS011;18338;53.240;8.798;2022-12-18T08:31:04;25.83;;;15.03;;
31764;SDS011;18338;53.240;8.798;2022-12-18T08:33:32;28.57;;;15.60;;
31764;SDS011;18338;53.240;8.798;2022-12-18T08:35:59;23.47;;;14.13;;
31764;SDS011;18338;53.240;8.798;2022-12-18T08:38:26;25.20;;;14.77;;
31764;SDS011;18338;53.240;8.798;2022-12-18T08:41:03;26.03;;;14.67;;
31764;SDS011;18338;53.240;8.798;2022-12-18T08:43:37;24.33;;;14.60;;
31764;SDS011;18338;53.240;8.798;2022-12-18T08:46:23;24.77;;;14.40;;
31764;SDS011;18338;53.240;8.798;2022-12-18T08:48:51;26.70;;;15.50;;
31764;SDS011;18338;53.240;8.798;2022-12-18T08:51:19;23.77;;;15.03;;
31764;SDS011;18338;53.240;8.798;2022-12-18T08:53:46;24.53;;;16.07;;
31764;SDS011;18338;53.240;8.798;2022-12-18T08:56:14;26.70;;;15.77;;
31764;SDS011;18338;53.240;8.798;2022-12-18T08:58:41;22.00;;;13.90;;
31764;SDS011;18338;53.240;8.798;2022-12-18T09:01:08;27.87;;;14.47;;
31764;SDS011;18338;53.240;8.798;2022-12-18T09:03:36;26.50;;;15.27;;
31764;SDS011;18338;53.240;8.798;2022-12-18T09:06:04;26.27;;;16.77;;
31764;SDS011;18338;53.240;8.798;2022-12-18T09:08:31;25.23;;;16.80;;
31764;SDS011;18338;53.240;8.798;2022-12-18T09:10:58;33.60;;;18.57;;
31764;SDS011;18338;53.240;8.798;2022-12-18T09:13:25;30.67;;;19.00;;
31764;SDS011;18338;53.240;8.798;2022-12-18T09:15:53;29.20;;;17.63;;
31764;SDS011;18338;53.240;8.798;2022-12-18T09:18:21;26.13;;;16.60;;
31764;SDS011;18338;53.240;8.798;2022-12-18T09:20:48;28.07;;;17.23;;
31764;SDS011;18338;53.240;8.798;2022-12-18T09:23:18;29.03;;;18.10;;
31764;SDS011;18338;53.240;8.798;2022-12-18T09:25:45;26.10;;;17.50;;
31764;SDS011;18338;53.240;8.798;2022-12-18T09:28:13;26.23;;;16.87;;
31764;SDS011;18338;53.240;8.798;2022-12-18T09:30:42;27.03;;;17.37;;
31764;SDS011;18338;53.240;8.798;2022-12-18T09:33:13;25.30;;;16.73;;
31764;SDS011;18338;53.240;8.798;2022-12-18T09:35:40;24.77;;;15.70;;
31764;SDS011;18338;53.240;8.798;2022-12-18T09:38:08;21.23;;;14.50;;
31764;SDS011;18338;53.240;8.798;2022-12-18T09:40:41;24.03;;;15.20;;
31764;SDS011;18338;53.240;8.798;2022-12-18T09:43:21;22.63;;;14.07;;
31764;SDS011;18338;53.240;8.798;2022-12-18T09:46:00;19.43;;;13.07;;
31764;SDS011;18338;53.240;8.798;2022-12-18T09:48:32;17.73;;;11.77;;
31764;SDS011;18338;53.240;8.798;2022-12-18T09:51:03;14.77;;;10.83;;
31764;SDS011;18338;53.240;8.798;2022-12-18T09:53:46;13.90;;;10.13;;
31764;SDS011;18338;53.240;8.798;2022-12-18T09:56:18;16.67;;;10.60;;
31764;SDS011;18338;53.240;8.798;2022-12-18T09:58:50;15.20;;;10.37;;
31764;SDS011;18338;53.240;8.798;2022-12-18T10:01:27;12.90;;;9.83;;
31764;SDS011;18338;53.240;8.798;2022-12-18T10:04:04;12.67;;;9.63;;
31764;SDS011;18338;53.240;8.798;2022-12-18T10:06:50;12.17;;;9.90;;
31764;SDS011;18338;53.240;8.798;2022-12-18T10:14:51;12.13;;;9.20;;
31764;SDS011;18338;53.240;8.798;2022-12-18T10:26:00;13.83;;;9.73;;
31764;SDS011;18338;53.240;8.798;2022-12-18T10:28:33;13.73;;;8.87;;
31764;SDS011;18338;53.240;8.798;2022-12-18T10:31:02;13.90;;;9.03;;
31764;SDS011;18338;53.240;8.798;2022-12-18T10:33:32;12.50;;;9.40;;
31764;SDS011;18338;53.240;8.798;2022-12-18T10:36:00;12.57;;;9.33;;
31764;SDS011;18338;53.240;8.798;2022-12-18T10:38:28;13.97;;;9.23;;
31764;SDS011;18338;53.240;8.798;2022-12-18T10:41:00;12.20;;;9.20;;
31764;SDS011;18338;53.240;8.798;2022-12-18T10:43:32;15.07;;;9.30;;
31764;SDS011;18338;53.240;8.798;2022-12-18T10:46:02;12.13;;;9.17;;
31764;SDS011;18338;53.240;8.798;2022-12-18T10:48:36;15.40;;;9.77;;
31764;SDS011;18338;53.240;8.798;2022-12-18T10:51:03;13.30;;;9.83;;
31764;SDS011;18338;53.240;8.798;2022-12-18T10:53:38;15.13;;;10.70;;
31764;SDS011;18338;53.240;8.798;2022-12-18T10:56:07;14.37;;;10.30;;
31764;SDS011;18338;53.240;8.798;2022-12-18T10:58:35;13.60;;;9.80;;
31764;SDS011;18338;53.240;8.798;2022-12-18T11:01:14;10.93;;;8.57;;
31764;SDS011;18338;53.240;8.798;2022-12-18T11:06:17;13.60;;;9.13;;
31764;SDS011;18338;53.240;8.798;2022-12-18T11:11:38;10.37;;;8.37;;
31764;SDS011;18338;53.240;8.798;2022-12-18T11:14:06;13.50;;;9.60;;
31764;SDS011;18338;53.240;8.798;2022-12-18T11:16:46;11.57;;;9.03;;
31764;SDS011;18338;53.240;8.798;2022-12-18T11:19:35;10.93;;;8.20;;
31764;SDS011;18338;53.240;8.798;2022-12-18T11:22:19;12.77;;;8.83;;
31764;SDS011;18338;53.240;8.798;2022-12-18T11:24:52;11.80;;;8.70;;
31764;SDS011;18338;53.240;8.798;2022-12-18T11:27:46;12.67;;;8.97;;
31764;SDS011;18338;53.240;8.798;2022-12-18T11:30:32;11.83;;;8.57;;
31764;SDS011;18338;53.240;8.798;2022-12-18T11:33:15;12.27;;;8.90;;
31764;SDS011;18338;53.240;8.798;2022-12-18T11:35:47;13.53;;;9.43;;
31764;SDS011;18338;53.240;8.798;2022-12-18T11:46:10;11.37;;;8.03;;
31764;SDS011;18338;53.240;8.798;2022-12-18T11:49:12;12.47;;;7.60;;
31764;SDS011;18338;53.240;8.798;2022-12-18T11:51:48;9.60;;;7.23;;
31764;SDS011;18338;53.240;8.798;2022-12-18T11:54:16;11.00;;;8.17;;
31764;SDS011;18338;53.240;8.798;2022-12-18T11:56:51;9.83;;;7.40;;
31764;SDS011;18338;53.240;8.798;2022-12-18T12:08:23;9.30;;;7.17;;
31764;SDS011;18338;53.240;8.798;2022-12-18T12:16:27;9.60;;;8.00;;
31764;SDS011;18338;53.240;8.798;2022-12-18T12:22:26;10.30;;;7.67;;
31764;SDS011;18338;53.240;8.798;2022-12-18T12:30:37;8.60;;;6.97;;
31764;SDS011;18338;53.240;8.798;2022-12-18T12:33:33;9.00;;;6.70;;
31764;SDS011;18338;53.240;8.798;2022-12-18T12:36:27;10.47;;;6.90;;
31764;SDS011;18338;53.240;8.798;2022-12-18T12:39:05;10.47;;;6.33;;
31764;SDS011;18338;53.240;8.798;2022-12-18T12:41:35;9.60;;;6.37;;
31764;SDS011;18338;53.240;8.798;2022-12-18T12:44:27;9.23;;;6.90;;
31764;SDS011;18338;53.240;8.798;2022-12-18T12:46:58;8.50;;;6.40;;
31764;SDS011;18338;53.240;8.798;2022-12-18T12:49:31;8.10;;;6.47;;
31764;SDS011;18338;53.240;8.798;2022-12-18T12:52:14;8.07;;;6.40;;
31764;SDS011;18338;53.240;8.798;2022-12-18T12:54:47;8.23;;;6.23;;
31764;SDS011;18338;53.240;8.798;2022-12-18T12:57:20;10.57;;;6.90;;
31764;SDS011;18338;53.240;8.798;2022-12-18T13:07:53;11.70;;;7.80;;
31764;SDS011;18338;53.240;8.798;2022-12-18T13:13:07;12.17;;;7.83;;
31764;SDS011;18338;53.240;8.798;2022-12-18T13:15:47;10.30;;;7.43;;
31764;SDS011;18338;53.240;8.798;2022-12-18T13:18:20;9.93;;;6.93;;
31764;SDS011;18338;53.240;8.798;2022-12-18T13:20:49;12.47;;;7.97;;
31764;SDS011;18338;53.240;8.798;2022-12-18T13:23:27;11.73;;;8.37;;
31764;SDS011;18338;53.240;8.798;2022-12-18T13:31:13;12.20;;;9.10;;
31764;SDS011;18338;53.240;8.798;2022-12-18T13:36:56;11.10;;;7.70;;
31764;SDS011;18338;53.240;8.798;2022-12-18T13:39:43;10.17;;;7.90;;
31764;SDS011;18338;53.240;8.798;2022-12-18T13:44:56;12.60;;;8.63;;
31764;SDS011;18338;53.240;8.798;2022-12-18T13:49:59;13.07;;;8.17;;
31764;SDS011;18338;53.240;8.798;2022-12-18T13:52:28;11.73;;;8.00;;
31764;SDS011;18338;53.240;8.798;2022-12-18T13:55:00;11.83;;;8.47;;
31764;SDS011;18338;53.240;8.798;2022-12-18T14:02:49;12.60;;;8.20;;
31764;SDS011;18338;53.240;8.798;2022-12-18T14:05:24;11.63;;;8.07;;
31764;SDS011;18338;53.240;8.798;2022-12-18T14:08:00;10.17;;;7.37;;
31764;SDS011;18338;53.240;8.798;2022-12-18T14:10:31;11.27;;;8.10;;
31764;SDS011;18338;53.240;8.798;2022-12-18T14:13:17;10.40;;;7.77;;
31764;SDS011;18338;53.240;8.798;2022-12-18T14:15:46;12.60;;;7.47;;
31764;SDS011;18338;53.240;8.798;2022-12-18T14:18:18;12.83;;;8.23;;
31764;SDS011;18338;53.240;8.798;2022-12-18T14:20:56;11.60;;;7.87;;
31764;SDS011;18338;53.240;8.798;2022-12-18T14:23:26;11.77;;;8.13;;
31764;SDS011;18338;53.240;8.798;2022-12-18T14:25:59;11.50;;;7.87;;
31764;SDS011;18338;53.240;8.798;2022-12-18T14:28:31;10.47;;;7.60;;
31764;SDS011;18338;53.240;8.798;2022-12-18T14:30:58;12.27;;;8.17;;
31764;SDS011;18338;53.240;8.798;2022-12-18T14:33:26;10.97;;;7.67;;
31764;SDS011;18338;53.240;8.798;2022-12-18T14:35:55;12.07;;;7.80;;
31764;SDS011;18338;53.240;8.798;2022-12-18T14:38:24;11.67;;;7.93;;
31764;SDS011;18338;53.240;8.798;2022-12-18T14:43:25;12.47;;;7.40;;
31764;SDS011;18338;53.240;8.798;2022-12-18T14:45:53;11.77;;;8.17;;
31764;SDS011;18338;53.240;8.798;2022-12-18T14:48:22;14.43;;;8.57;;
31764;SDS011;18338;53.240;8.798;2022-12-18T14:51:04;9.70;;;7.57;;
31764;SDS011;18338;53.240;8.798;2022-12-18T14:53:35;11.03;;;7.33;;
31764;SDS011;18338;53.240;8.798;2022-12-18T14:56:03;12.80;;;7.57;;
31764;SDS011;18338;53.240;8.798;2022-12-18T14:58:45;10.63;;;7.20;;
31764;SDS011;18338;53.240;8.798;2022-12-18T15:01:23;11.40;;;6.80;;
31764;SDS011;18338;53.240;8.798;2022-12-18T15:03:56;11.37;;;7.20;;
31764;SDS011;18338;53.240;8.798;2022-12-18T15:06:25;12.77;;;6.93;;
31764;SDS011;18338;53.240;8.798;2022-12-18T15:08:54;9.57;;;6.70;;
31764;SDS011;18338;53.240;8.798;2022-12-18T15:14:48;9.83;;;6.77;;
31764;SDS011;18338;53.240;8.798;2022-12-18T15:17:15;10.87;;;7.13;;
31764;SDS011;18338;53.240;8.798;2022-12-18T15:19:44;10.27;;;7.33;;
31764;SDS011;18338;53.240;8.798;2022-12-18T15:22:20;10.47;;;6.93;;
31764;SDS011;18338;53.240;8.798;2022-12-18T15:24:55;11.47;;;7.20;;
31764;SDS011;18338;53.240;8.798;2022-12-18T15:27:27;9.00;;;6.60;;
31764;SDS011;18338;53.240;8.798;2022-12-18T15:32:36;9.57;;;7.10;;
31764;SDS011;18338;53.240;8.798;2022-12-18T15:35:14;9.93;;;7.00;;
31764;SDS011;18338;53.240;8.798;2022-12-18T15:37:42;11.20;;;6.93;;
31764;SDS011;18338;53.240;8.798;2022-12-18T15:40:13;9.10;;;6.40;;
31764;SDS011;18338;53.240;8.798;2022-12-18T15:42:42;8.27;;;6.13;;
31764;SDS011;18338;53.240;8.798;2022-12-18T15:45:28;7.27;;;5.37;;
31764;SDS011;18338;53.240;8.798;2022-12-18T15:47:55;9.23;;;5.80;;
31764;SDS011;18338;53.240;8.798;2022-12-18T15:50:22;11.77;;;5.97;;
31764;SDS011;18338;53.240;8.798;2022-12-18T15:52:49;11.40;;;6.47;;
31764;SDS011;18338;53.240;8.798;2022-12-18T15:55:22;14.40;;;6.00;;
31764;SDS011;18338;53.240;8.798;2022-12-18T15:58:09;11.37;;;5.97;;
31764;SDS011;18338;53.240;8.798;2022-12-18T16:00:38;8.13;;;5.53;;
31764;SDS011;18338;53.240;8.798;2022-12-18T16:03:06;8.27;;;6.00;;
31764;SDS011;18338;53.240;8.798;2022-12-18T16:05:33;9.07;;;6.33;;
31764;SDS011;18338;53.240;8.798;2022-12-18T16:08:00;10.53;;;7.03;;
31764;SDS011;18338;53.240;8.798;2022-12-18T16:10:27;10.50;;;6.60;;
31764;SDS011;18338;53.240;8.798;2022-12-18T16:12:54;10.53;;;6.20;;
31764;SDS011;18338;53.240;8.798;2022-12-18T16:15:21;9.20;;;5.67;;
31764;SDS011;18338;53.240;8.798;2022-12-18T16:17:50;9.93;;;6.07;;
31764;SDS011;18338;53.240;8.798;2022-12-18T16:20:19;10.17;;;5.50;;
31764;SDS011;18338;53.240;8.798;2022-12-18T16:22:48;9.77;;;6.40;;
31764;SDS011;18338;53.240;8.798;2022-12-18T16:27:46;9.23;;;5.47;;
31764;SDS011;18338;53.240;8.798;2022-12-18T16:30:15;8.10;;;5.17;;
31764;SDS011;18338;53.240;8.798;2022-12-18T16:32:43;9.10;;;5.20;;
31764;SDS011;18338;53.240;8.798;2022-12-18T16:35:14;6.73;;;4.83;;
31764;SDS011;18338;53.240;8.798;2022-12-18T16:37:42;8.67;;;5.27;;
31764;SDS011;18338;53.240;8.798;2022-12-18T16:40:10;9.27;;;5.00;;
31764;SDS011;18338;53.240;8.798;2022-12-18T16:42:39;9.27;;;5.07;;
31764;SDS011;18338;53.240;8.798;2022-12-18T16:45:09;8.10;;;5.27;;
31764;SDS011;18338;53.240;8.798;2022-12-18T16:47:38;7.27;;;4.77;;
31764;SDS011;18338;53.240;8.798;2022-12-18T16:50:05;7.77;;;5.00;;